sensor_id;sensor_type;location;lat;lon;timestamp;pressure;altitude;pressure_sealevel;temperature
82636;BMP280;72317;37.280;-121.948;2024-02-16T00:00:09;101105.78;;;17.36
82636;BMP280;72317;37.280;-121.948;2024-02-16T00:05:10;101088.50;;;17.68
82636;BMP280;72317;37.280;-121.948;2024-02-16T00:10:11;101023.22;;;17.51
82636;BMP280;72317;37.280;-121.948;2024-02-16T00:15:12;100889.84;;;17.37
82636;BMP280;72317;37.280;-121.948;2024-02-16T00:20:13;100924.66;;;17.38
82636;BMP280;72317;37.280;-121.948;2024-02-16T00:25:14;100927.34;;;17.42
82636;BMP280;72317;37.280;-121.948;2024-02-16T00:30:15;100766.06;;;17.33
82636;BMP280;72317;37.280;-121.948;2024-02-16T00:35:15;100544.28;;;17.12
82636;BMP280;72317;37.280;-121.948;2024-02-16T00:40:16;100427.63;;;17.03
82636;BMP280;72317;37.280;-121.948;2024-02-16T00:45:17;100312.41;;;16.82
82636;BMP280;72317;37.280;-121.948;2024-02-16T00:50:18;99861.13;;;16.41
82636;BMP280;72317;37.280;-121.948;2024-02-16T00:55:19;99522.47;;;16.66
82636;BMP280;72317;37.280;-121.948;2024-02-16T01:00:19;99508.06;;;16.56
82636;BMP280;72317;37.280;-121.948;2024-02-16T01:05:20;99414.50;;;16.59
82636;BMP280;72317;37.280;-121.948;2024-02-16T01:10:21;99439.28;;;16.45
82636;BMP280;72317;37.280;-121.948;2024-02-16T01:15:22;99336.03;;;16.24
82636;BMP280;72317;37.280;-121.948;2024-02-16T01:20:23;98988.34;;;16.09
82636;BMP280;72317;37.280;-121.948;2024-02-16T01:25:23;98922.25;;;16.00
82636;BMP280;72317;37.280;-121.948;2024-02-16T01:30:24;98668.94;;;15.86
82636;BMP280;72317;37.280;-121.948;2024-02-16T01:35:25;97943.34;;;15.57
82636;BMP280;72317;37.280;-121.948;2024-02-16T01:40:26;97033.59;;;15.48
82636;BMP280;72317;37.280;-121.948;2024-02-16T01:45:27;95989.41;;;15.36
82636;BMP280;72317;37.280;-121.948;2024-02-16T01:50:27;95056.97;;;15.23
82636;BMP280;72317;37.280;-121.948;2024-02-16T01:55:28;93961.28;;;15.13
82636;BMP280;72317;37.280;-121.948;2024-02-16T02:00:29;93229.97;;;14.99
82636;BMP280;72317;37.280;-121.948;2024-02-16T02:05:32;92877.72;;;14.93
82636;BMP280;72317;37.280;-121.948;2024-02-16T02:10:32;92552.16;;;14.58
82636;BMP280;72317;37.280;-121.948;2024-02-16T02:15:33;92246.56;;;14.63
82636;BMP280;72317;37.280;-121.948;2024-02-16T02:20:34;92117.09;;;14.68
82636;BMP280;72317;37.280;-121.948;2024-02-16T02:25:35;92110.34;;;14.42
82636;BMP280;72317;37.280;-121.948;2024-02-16T02:30:36;92254.88;;;14.55
82636;BMP280;72317;37.280;-121.948;2024-02-16T02:35:36;92427.44;;;14.40
82636;BMP280;72317;37.280;-121.948;2024-02-16T02:40:37;92502.59;;;14.49
82636;BMP280;72317;37.280;-121.948;2024-02-16T02:45:38;92580.06;;;14.41
82636;BMP280;72317;37.280;-121.948;2024-02-16T02:50:39;92691.31;;;14.25
82636;BMP280;72317;37.280;-121.948;2024-02-16T02:55:39;92759.84;;;14.14
82636;BMP280;72317;37.280;-121.948;2024-02-16T03:00:40;92824.34;;;14.14
82636;BMP280;72317;37.280;-121.948;2024-02-16T03:05:42;92879.38;;;14.13
82636;BMP280;72317;37.280;-121.948;2024-02-16T03:10:43;92980.41;;;13.97
82636;BMP280;72317;37.280;-121.948;2024-02-16T03:15:44;93002.16;;;14.01
82636;BMP280;72317;37.280;-121.948;2024-02-16T03:20:45;93070.19;;;13.84
82636;BMP280;72317;37.280;-121.948;2024-02-16T03:25:46;93110.06;;;13.78
82636;BMP280;72317;37.280;-121.948;2024-02-16T03:30:47;93133.41;;;13.85
82636;BMP280;72317;37.280;-121.948;2024-02-16T03:35:48;93212.41;;;13.63
82636;BMP280;72317;37.280;-121.948;2024-02-16T03:40:48;93217.78;;;13.72
82636;BMP280;72317;37.280;-121.948;2024-02-16T03:45:49;93296.19;;;13.51
82636;BMP280;72317;37.280;-121.948;2024-02-16T03:50:50;93461.19;;;13.23
82636;BMP280;72317;37.280;-121.948;2024-02-16T03:55:51;93500.88;;;13.25
82636;BMP280;72317;37.280;-121.948;2024-02-16T04:00:52;93547.00;;;13.31
82636;BMP280;72317;37.280;-121.948;2024-02-16T04:05:52;93654.22;;;13.04
82636;BMP280;72317;37.280;-121.948;2024-02-16T04:10:53;93657.16;;;13.16
82636;BMP280;72317;37.280;-121.948;2024-02-16T04:15:54;93767.16;;;12.91
82636;BMP280;72317;37.280;-121.948;2024-02-16T04:20:55;93781.06;;;12.97
82636;BMP280;72317;37.280;-121.948;2024-02-16T04:25:56;93873.25;;;12.69
82636;BMP280;72317;37.280;-121.948;2024-02-16T04:30:57;93931.22;;;12.49
82636;BMP280;72317;37.280;-121.948;2024-02-16T04:35:57;93921.53;;;12.54
82636;BMP280;72317;37.280;-121.948;2024-02-16T04:40:58;93939.44;;;12.44
82636;BMP280;72317;37.280;-121.948;2024-02-16T04:45:59;93947.63;;;12.46
82636;BMP280;72317;37.280;-121.948;2024-02-16T04:51:00;94000.66;;;12.24
82636;BMP280;72317;37.280;-121.948;2024-02-16T04:56:01;93994.78;;;12.33
82636;BMP280;72317;37.280;-121.948;2024-02-16T05:01:01;94009.44;;;12.32
82636;BMP280;72317;37.280;-121.948;2024-02-16T05:06:02;94018.03;;;12.31
82636;BMP280;72317;37.280;-121.948;2024-02-16T05:11:03;94052.16;;;12.23
82636;BMP280;72317;37.280;-121.948;2024-02-16T05:16:10;94109.09;;;12.08
82636;BMP280;72317;37.280;-121.948;2024-02-16T05:21:11;94091.59;;;12.15
82636;BMP280;72317;37.280;-121.948;2024-02-16T05:26:12;94157.50;;;11.81
82636;BMP280;72317;37.280;-121.948;2024-02-16T05:31:17;94127.19;;;11.87
82636;BMP280;72317;37.280;-121.948;2024-02-16T05:36:21;94146.75;;;11.74
82636;BMP280;72317;37.280;-121.948;2024-02-16T05:41:22;94115.72;;;11.78
82636;BMP280;72317;37.280;-121.948;2024-02-16T05:46:23;94098.97;;;11.86
82636;BMP280;72317;37.280;-121.948;2024-02-16T05:51:24;94123.38;;;11.82
82636;BMP280;72317;37.280;-121.948;2024-02-16T05:56:25;94118.03;;;11.82
82636;BMP280;72317;37.280;-121.948;2024-02-16T06:01:26;94200.38;;;11.40
82636;BMP280;72317;37.280;-121.948;2024-02-16T06:06:26;94126.78;;;11.54
82636;BMP280;72317;37.280;-121.948;2024-02-16T06:11:27;94114.16;;;11.62
82636;BMP280;72317;37.280;-121.948;2024-02-16T06:16:28;94144.09;;;11.53
82636;BMP280;72317;37.280;-121.948;2024-02-16T06:21:29;94098.97;;;11.57
82636;BMP280;72317;37.280;-121.948;2024-02-16T06:26:29;94114.78;;;11.47
82636;BMP280;72317;37.280;-121.948;2024-02-16T06:31:30;94108.16;;;11.41
82636;BMP280;72317;37.280;-121.948;2024-02-16T06:36:31;94126.41;;;11.29
82636;BMP280;72317;37.280;-121.948;2024-02-16T06:41:32;94077.31;;;11.47
82636;BMP280;72317;37.280;-121.948;2024-02-16T06:46:32;94074.91;;;11.36
82636;BMP280;72317;37.280;-121.948;2024-02-16T06:51:33;94150.56;;;11.16
82636;BMP280;72317;37.280;-121.948;2024-02-16T06:56:34;94020.22;;;11.24
82636;BMP280;72317;37.280;-121.948;2024-02-16T07:01:35;94038.88;;;11.16
82636;BMP280;72317;37.280;-121.948;2024-02-16T07:06:36;94076.94;;;10.81
82636;BMP280;72317;37.280;-121.948;2024-02-16T07:11:37;93937.03;;;10.86
82636;BMP280;72317;37.280;-121.948;2024-02-16T07:16:37;93818.09;;;11.23
82636;BMP280;72317;37.280;-121.948;2024-02-16T07:21:38;93907.75;;;11.09
82636;BMP280;72317;37.280;-121.948;2024-02-16T07:26:39;93913.94;;;10.75
82636;BMP280;72317;37.280;-121.948;2024-02-16T07:31:40;93760.69;;;10.88
82636;BMP280;72317;37.280;-121.948;2024-02-16T07:36:41;93769.97;;;10.87
82636;BMP280;72317;37.280;-121.948;2024-02-16T07:41:41;93797.38;;;10.80
82636;BMP280;72317;37.280;-121.948;2024-02-16T07:46:42;93841.09;;;10.54
82636;BMP280;72317;37.280;-121.948;2024-02-16T07:51:43;93757.88;;;10.57
82636;BMP280;72317;37.280;-121.948;2024-02-16T07:56:44;93671.06;;;10.51
82636;BMP280;72317;37.280;-121.948;2024-02-16T08:01:44;93592.16;;;10.57
82636;BMP280;72317;37.280;-121.948;2024-02-16T08:06:45;93662.09;;;10.41
82636;BMP280;72317;37.280;-121.948;2024-02-16T08:11:46;93607.78;;;10.46
82636;BMP280;72317;37.280;-121.948;2024-02-16T08:16:47;93510.91;;;10.53
82636;BMP280;72317;37.280;-121.948;2024-02-16T08:21:47;93608.28;;;10.37
82636;BMP280;72317;37.280;-121.948;2024-02-16T08:26:48;93527.09;;;10.47
82636;BMP280;72317;37.280;-121.948;2024-02-16T08:31:49;93568.44;;;10.54
82636;BMP280;72317;37.280;-121.948;2024-02-16T08:36:50;93577.72;;;10.60
82636;BMP280;72317;37.280;-121.948;2024-02-16T08:41:51;93631.38;;;10.70
82636;BMP280;72317;37.280;-121.948;2024-02-16T08:46:52;93743.44;;;10.60
82636;BMP280;72317;37.280;-121.948;2024-02-16T08:51:53;93820.19;;;10.52
82636;BMP280;72317;37.280;-121.948;2024-02-16T08:56:54;93871.59;;;10.38
82636;BMP280;72317;37.280;-121.948;2024-02-16T09:01:55;93854.50;;;10.41
82636;BMP280;72317;37.280;-121.948;2024-02-16T09:06:56;93851.97;;;10.14
82636;BMP280;72317;37.280;-121.948;2024-02-16T09:11:57;93723.44;;;10.18
82636;BMP280;72317;37.280;-121.948;2024-02-16T09:16:57;93648.81;;;10.20
82636;BMP280;72317;37.280;-121.948;2024-02-16T09:21:59;93592.56;;;10.25
82636;BMP280;72317;37.280;-121.948;2024-02-16T09:27:00;93591.88;;;10.25
82636;BMP280;72317;37.280;-121.948;2024-02-16T09:32:01;93582.03;;;10.20
82636;BMP280;72317;37.280;-121.948;2024-02-16T09:37:02;93668.09;;;9.97
82636;BMP280;72317;37.280;-121.948;2024-02-16T09:42:03;93574.53;;;10.11
82636;BMP280;72317;37.280;-121.948;2024-02-16T09:47:04;93486.41;;;10.18
82636;BMP280;72317;37.280;-121.948;2024-02-16T09:52:09;93669.44;;;9.83
82636;BMP280;72317;37.280;-121.948;2024-02-16T09:57:10;93550.19;;;9.86
82636;BMP280;72317;37.280;-121.948;2024-02-16T10:02:11;93451.84;;;10.05
82636;BMP280;72317;37.280;-121.948;2024-02-16T10:07:12;93491.88;;;10.05
82636;BMP280;72317;37.280;-121.948;2024-02-16T10:12:18;93552.91;;;9.93
82636;BMP280;72317;37.280;-121.948;2024-02-16T10:17:19;93540.81;;;9.92
82636;BMP280;72317;37.280;-121.948;2024-02-16T10:22:19;93572.34;;;9.73
82636;BMP280;72317;37.280;-121.948;2024-02-16T10:27:20;93476.78;;;9.71
82636;BMP280;72317;37.280;-121.948;2024-02-16T10:32:22;93279.84;;;9.93
82636;BMP280;72317;37.280;-121.948;2024-02-16T10:37:23;93299.44;;;9.95
82636;BMP280;72317;37.280;-121.948;2024-02-16T10:42:27;93321.13;;;9.92
82636;BMP280;72317;37.280;-121.948;2024-02-16T10:47:28;93372.94;;;9.89
82636;BMP280;72317;37.280;-121.948;2024-02-16T10:52:29;93368.69;;;9.93
82636;BMP280;72317;37.280;-121.948;2024-02-16T10:57:30;93379.16;;;9.99
82636;BMP280;72317;37.280;-121.948;2024-02-16T11:02:31;93341.78;;;10.14
82636;BMP280;72317;37.280;-121.948;2024-02-16T11:07:32;93506.38;;;9.81
82636;BMP280;72317;37.280;-121.948;2024-02-16T11:12:34;93410.31;;;9.89
82636;BMP280;72317;37.280;-121.948;2024-02-16T11:17:35;93346.41;;;9.98
82636;BMP280;72317;37.280;-121.948;2024-02-16T11:22:37;93441.44;;;9.79
82636;BMP280;72317;37.280;-121.948;2024-02-16T11:27:39;93499.25;;;9.76
82636;BMP280;72317;37.280;-121.948;2024-02-16T11:32:42;93407.47;;;9.87
82636;BMP280;72317;37.280;-121.948;2024-02-16T11:37:43;93422.94;;;9.88
82636;BMP280;72317;37.280;-121.948;2024-02-16T11:42:44;93532.84;;;9.71
82636;BMP280;72317;37.280;-121.948;2024-02-16T11:47:45;93530.41;;;9.53
82636;BMP280;72317;37.280;-121.948;2024-02-16T11:52:47;93345.09;;;9.61
82636;BMP280;72317;37.280;-121.948;2024-02-16T11:57:48;93232.13;;;9.82
82636;BMP280;72317;37.280;-121.948;2024-02-16T12:02:59;93383.81;;;9.39
82636;BMP280;72317;37.280;-121.948;2024-02-16T12:07:59;93158.81;;;9.83
82636;BMP280;72317;37.280;-121.948;2024-02-16T12:13:00;93235.91;;;9.94
82636;BMP280;72317;37.280;-121.948;2024-02-16T12:18:01;93338.06;;;9.94
82636;BMP280;72317;37.280;-121.948;2024-02-16T12:23:11;93416.03;;;9.93
82636;BMP280;72317;37.280;-121.948;2024-02-16T12:28:12;93474.03;;;9.85
82636;BMP280;72317;37.280;-121.948;2024-02-16T12:33:13;93491.19;;;9.61
82636;BMP280;72317;37.280;-121.948;2024-02-16T12:38:14;93376.66;;;9.78
82636;BMP280;72317;37.280;-121.948;2024-02-16T12:43:15;93389.13;;;9.83
82636;BMP280;72317;37.280;-121.948;2024-02-16T12:48:16;93402.47;;;9.83
82636;BMP280;72317;37.280;-121.948;2024-02-16T12:53:16;93435.00;;;9.82
82636;BMP280;72317;37.280;-121.948;2024-02-16T12:58:17;93495.59;;;9.58
82636;BMP280;72317;37.280;-121.948;2024-02-16T13:03:18;93394.91;;;9.59
82636;BMP280;72317;37.280;-121.948;2024-02-16T13:08:18;93321.59;;;9.52
82636;BMP280;72317;37.280;-121.948;2024-02-16T13:13:19;93157.94;;;9.50
82636;BMP280;72317;37.280;-121.948;2024-02-16T13:18:20;92995.34;;;9.67
82636;BMP280;72317;37.280;-121.948;2024-02-16T13:23:21;93010.31;;;9.55
82636;BMP280;72317;37.280;-121.948;2024-02-16T13:28:22;92996.41;;;9.64
82636;BMP280;72317;37.280;-121.948;2024-02-16T13:33:22;93000.53;;;9.57
82636;BMP280;72317;37.280;-121.948;2024-02-16T13:38:23;93021.50;;;9.68
82636;BMP280;72317;37.280;-121.948;2024-02-16T13:43:24;93220.75;;;9.58
82636;BMP280;72317;37.280;-121.948;2024-02-16T13:48:25;93203.31;;;9.65
82636;BMP280;72317;37.280;-121.948;2024-02-16T13:53:26;93194.41;;;9.77
82636;BMP280;72317;37.280;-121.948;2024-02-16T13:58:27;93308.13;;;9.65
82636;BMP280;72317;37.280;-121.948;2024-02-16T14:03:27;93307.19;;;9.63
82636;BMP280;72317;37.280;-121.948;2024-02-16T14:08:28;93274.66;;;9.72
82636;BMP280;72317;37.280;-121.948;2024-02-16T14:13:29;93360.91;;;9.52
82636;BMP280;72317;37.280;-121.948;2024-02-16T14:18:30;93219.84;;;9.48
82636;BMP280;72317;37.280;-121.948;2024-02-16T14:23:31;93058.84;;;9.68
82636;BMP280;72317;37.280;-121.948;2024-02-16T14:28:31;93054.91;;;9.77
82636;BMP280;72317;37.280;-121.948;2024-02-16T14:33:32;93128.06;;;9.74
82636;BMP280;72317;37.280;-121.948;2024-02-16T14:38:33;93169.84;;;9.87
82636;BMP280;72317;37.280;-121.948;2024-02-16T14:43:34;93344.44;;;9.84
82636;BMP280;72317;37.280;-121.948;2024-02-16T14:48:35;93421.13;;;9.75
82636;BMP280;72317;37.280;-121.948;2024-02-16T14:53:36;93433.75;;;9.75
82636;BMP280;72317;37.280;-121.948;2024-02-16T14:58:37;93448.34;;;9.82
82636;BMP280;72317;37.280;-121.948;2024-02-16T15:03:38;93462.63;;;9.92
82636;BMP280;72317;37.280;-121.948;2024-02-16T15:08:38;93564.78;;;9.85
82636;BMP280;72317;37.280;-121.948;2024-02-16T15:13:39;93584.19;;;9.85
82636;BMP280;72317;37.280;-121.948;2024-02-16T15:18:40;93569.47;;;9.99
82636;BMP280;72317;37.280;-121.948;2024-02-16T15:23:41;93692.06;;;10.11
82636;BMP280;72317;37.280;-121.948;2024-02-16T15:28:41;93804.69;;;10.22
82636;BMP280;72317;37.280;-121.948;2024-02-16T15:33:42;93930.16;;;10.15
82636;BMP280;72317;37.280;-121.948;2024-02-16T15:38:43;93938.16;;;10.15
82636;BMP280;72317;37.280;-121.948;2024-02-16T15:43:44;93913.88;;;10.26
82636;BMP280;72317;37.280;-121.948;2024-02-16T15:48:44;93936.88;;;10.29
82636;BMP280;72317;37.280;-121.948;2024-02-16T15:53:45;93963.81;;;10.31
82636;BMP280;72317;37.280;-121.948;2024-02-16T15:58:46;94042.00;;;10.31
82636;BMP280;72317;37.280;-121.948;2024-02-16T16:03:47;94054.06;;;10.25
82636;BMP280;72317;37.280;-121.948;2024-02-16T16:08:47;93986.00;;;10.60
82636;BMP280;72317;37.280;-121.948;2024-02-16T16:13:48;93908.41;;;11.02
82636;BMP280;72317;37.280;-121.948;2024-02-16T16:18:49;94021.81;;;11.19
82636;BMP280;72317;37.280;-121.948;2024-02-16T16:23:50;94035.47;;;11.37
82636;BMP280;72317;37.280;-121.948;2024-02-16T16:28:50;94069.47;;;11.29
82636;BMP280;72317;37.280;-121.948;2024-02-16T16:33:51;94045.50;;;11.44
82636;BMP280;72317;37.280;-121.948;2024-02-16T16:38:52;94075.28;;;11.40
82636;BMP280;72317;37.280;-121.948;2024-02-16T16:43:53;93977.69;;;11.85
82636;BMP280;72317;37.280;-121.948;2024-02-16T16:48:54;94106.69;;;11.68
82636;BMP280;72317;37.280;-121.948;2024-02-16T16:53:55;94107.22;;;11.88
82636;BMP280;72317;37.280;-121.948;2024-02-16T16:58:56;94132.97;;;11.98
82636;BMP280;72317;37.280;-121.948;2024-02-16T17:03:56;94210.91;;;11.79
82636;BMP280;72317;37.280;-121.948;2024-02-16T17:08:57;94150.53;;;12.07
82636;BMP280;72317;37.280;-121.948;2024-02-16T17:13:58;94172.16;;;12.09
82636;BMP280;72317;37.280;-121.948;2024-02-16T17:18:59;94139.38;;;12.31
82636;BMP280;72317;37.280;-121.948;2024-02-16T17:23:59;94194.91;;;12.16
82636;BMP280;72317;37.280;-121.948;2024-02-16T17:29:00;94170.84;;;12.31
82636;BMP280;72317;37.280;-121.948;2024-02-16T17:34:01;94187.69;;;12.39
82636;BMP280;72317;37.280;-121.948;2024-02-16T17:39:02;94161.09;;;12.49
82636;BMP280;72317;37.280;-121.948;2024-02-16T17:44:03;94175.41;;;12.44
82636;BMP280;72317;37.280;-121.948;2024-02-16T17:49:03;94212.88;;;12.36
82636;BMP280;72317;37.280;-121.948;2024-02-16T17:54:04;94234.50;;;12.38
82636;BMP280;72317;37.280;-121.948;2024-02-16T17:59:05;94210.53;;;12.68
82636;BMP280;72317;37.280;-121.948;2024-02-16T18:04:06;94107.03;;;13.11
82636;BMP280;72317;37.280;-121.948;2024-02-16T18:09:07;93983.69;;;13.51
82636;BMP280;72317;37.280;-121.948;2024-02-16T18:14:08;93804.81;;;13.98
82636;BMP280;72317;37.280;-121.948;2024-02-16T18:19:08;93723.94;;;13.86
82636;BMP280;72317;37.280;-121.948;2024-02-16T18:24:09;93651.97;;;14.02
82636;BMP280;72317;37.280;-121.948;2024-02-16T18:29:10;93706.41;;;13.85
82636;BMP280;72317;37.280;-121.948;2024-02-16T18:34:11;93734.06;;;13.78
82636;BMP280;72317;37.280;-121.948;2024-02-16T18:39:11;93759.66;;;13.79
82636;BMP280;72317;37.280;-121.948;2024-02-16T18:44:12;93761.16;;;13.90
82636;BMP280;72317;37.280;-121.948;2024-02-16T18:49:13;93709.91;;;13.96
82636;BMP280;72317;37.280;-121.948;2024-02-16T18:54:14;93243.75;;;15.86
82636;BMP280;72317;37.280;-121.948;2024-02-16T18:59:15;94137.44;;;17.97
82636;BMP280;72317;37.280;-121.948;2024-02-16T19:04:16;93885.75;;;17.35
82636;BMP280;72317;37.280;-121.948;2024-02-16T19:09:16;94363.88;;;18.23
82636;BMP280;72317;37.280;-121.948;2024-02-16T19:14:17;95558.94;;;18.38
82636;BMP280;72317;37.280;-121.948;2024-02-16T19:19:18;93845.31;;;16.77
82636;BMP280;72317;37.280;-121.948;2024-02-16T19:24:19;93422.31;;;16.06
82636;BMP280;72317;37.280;-121.948;2024-02-16T19:29:19;93230.47;;;16.00
82636;BMP280;72317;37.280;-121.948;2024-02-16T19:34:20;93206.16;;;16.10
82636;BMP280;72317;37.280;-121.948;2024-02-16T19:39:21;94568.84;;;18.23
82636;BMP280;72317;37.280;-121.948;2024-02-16T19:44:21;94399.31;;;18.18
82636;BMP280;72317;37.280;-121.948;2024-02-16T19:49:22;94135.91;;;16.73
82636;BMP280;72317;37.280;-121.948;2024-02-16T19:54:23;93675.34;;;16.29
82636;BMP280;72317;37.280;-121.948;2024-02-16T19:59:24;93596.13;;;15.95
82636;BMP280;72317;37.280;-121.948;2024-02-16T20:04:25;93324.66;;;16.08
82636;BMP280;72317;37.280;-121.948;2024-02-16T20:09:25;93306.72;;;15.91
82636;BMP280;72317;37.280;-121.948;2024-02-16T20:14:26;93306.03;;;16.76
82636;BMP280;72317;37.280;-121.948;2024-02-16T20:19:27;94349.78;;;19.02
82636;BMP280;72317;37.280;-121.948;2024-02-16T20:24:28;94760.38;;;18.93
82636;BMP280;72317;37.280;-121.948;2024-02-16T20:29:29;94572.22;;;18.14
82636;BMP280;72317;37.280;-121.948;2024-02-16T20:34:29;94567.50;;;18.32
82636;BMP280;72317;37.280;-121.948;2024-02-16T20:39:30;94205.28;;;17.62
82636;BMP280;72317;37.280;-121.948;2024-02-16T20:44:31;93810.91;;;17.57
82636;BMP280;72317;37.280;-121.948;2024-02-16T20:49:32;94132.38;;;17.36
82636;BMP280;72317;37.280;-121.948;2024-02-16T20:54:33;94152.94;;;17.68
82636;BMP280;72317;37.280;-121.948;2024-02-16T20:59:34;94784.06;;;17.89
82636;BMP280;72317;37.280;-121.948;2024-02-16T21:04:35;94763.34;;;18.09
82636;BMP280;72317;37.280;-121.948;2024-02-16T21:09:36;94943.56;;;17.87
82636;BMP280;72317;37.280;-121.948;2024-02-16T21:14:37;94965.44;;;17.74
82636;BMP280;72317;37.280;-121.948;2024-02-16T21:19:37;95085.78;;;17.50
82636;BMP280;72317;37.280;-121.948;2024-02-16T21:24:38;95225.84;;;17.29
82636;BMP280;72317;37.280;-121.948;2024-02-16T21:29:39;95194.81;;;17.30
82636;BMP280;72317;37.280;-121.948;2024-02-16T21:34:40;95117.91;;;17.08
82636;BMP280;72317;37.280;-121.948;2024-02-16T21:39:41;95057.88;;;17.25
82636;BMP280;72317;37.280;-121.948;2024-02-16T21:44:41;95025.66;;;17.19
82636;BMP280;72317;37.280;-121.948;2024-02-16T21:49:42;94944.00;;;17.21
82636;BMP280;72317;37.280;-121.948;2024-02-16T21:54:45;94988.31;;;17.25
82636;BMP280;72317;37.280;-121.948;2024-02-16T21:59:46;94887.78;;;17.27
82636;BMP280;72317;37.280;-121.948;2024-02-16T22:04:47;95057.72;;;17.23
82636;BMP280;72317;37.280;-121.948;2024-02-16T22:09:47;94981.78;;;17.44
82636;BMP280;72317;37.280;-121.948;2024-02-16T22:14:48;94966.13;;;17.34
82636;BMP280;72317;37.280;-121.948;2024-02-16T22:19:49;95075.91;;;17.15
82636;BMP280;72317;37.280;-121.948;2024-02-16T22:24:50;94968.91;;;17.19
82636;BMP280;72317;37.280;-121.948;2024-02-16T22:29:50;94760.81;;;17.19
82636;BMP280;72317;37.280;-121.948;2024-02-16T22:34:51;95084.00;;;17.30
82636;BMP280;72317;37.280;-121.948;2024-02-16T22:39:52;95213.22;;;17.54
82636;BMP280;72317;37.280;-121.948;2024-02-16T22:44:53;95417.88;;;17.59
82636;BMP280;72317;37.280;-121.948;2024-02-16T22:49:54;95592.50;;;17.76
82636;BMP280;72317;37.280;-121.948;2024-02-16T22:54:56;95459.22;;;17.75
82636;BMP280;72317;37.280;-121.948;2024-02-16T22:59:56;95183.28;;;17.45
82636;BMP280;72317;37.280;-121.948;2024-02-16T23:04:57;94971.16;;;17.46
82636;BMP280;72317;37.280;-121.948;2024-02-16T23:09:58;95140.75;;;17.53
82636;BMP280;72317;37.280;-121.948;2024-02-16T23:14:59;95238.66;;;17.67
82636;BMP280;72317;37.280;-121.948;2024-02-16T23:20:00;94972.91;;;17.58
82636;BMP280;72317;37.280;-121.948;2024-02-16T23:25:00;95377.50;;;17.61
82636;BMP280;72317;37.280;-121.948;2024-02-16T23:30:01;95562.38;;;17.72
82636;BMP280;72317;37.280;-121.948;2024-02-16T23:35:02;95825.06;;;17.81
82636;BMP280;72317;37.280;-121.948;2024-02-16T23:40:04;96093.81;;;17.76
82636;BMP280;72317;37.280;-121.948;2024-02-16T23:45:06;96241.47;;;17.58
82636;BMP280;72317;37.280;-121.948;2024-02-16T23:50:08;97173.03;;;17.42
82636;BMP280;72317;37.280;-121.948;2024-02-16T23:55:10;97947.47;;;17.46
